sensor_id;sensor_type;location;lat;lon;timestamp;pressure;altitude;pressure_sealevel;temperature;humidity
69796;BME280;57073;45.650;9.612;2023-05-16T00:04:56;98326.88;;;14.64;56.99
69796;BME280;57073;45.650;9.612;2023-05-16T00:09:56;98311.88;;;14.72;56.49
69796;BME280;57073;45.650;9.612;2023-05-16T00:14:56;98306.97;;;14.74;55.56
69796;BME280;57073;45.650;9.612;2023-05-16T00:19:58;98295.13;;;14.65;57.14
69796;BME280;57073;45.650;9.612;2023-05-16T00:24:59;98303.56;;;14.63;55.99
69796;BME280;57073;45.650;9.612;2023-05-16T00:30:00;98296.63;;;14.52;56.19
69796;BME280;57073;45.650;9.612;2023-05-16T00:35:02;98289.56;;;14.51;55.81
69796;BME280;57073;45.650;9.612;2023-05-16T00:40:02;98288.47;;;14.52;55.63
69796;BME280;57073;45.650;9.612;2023-05-16T00:45:05;98279.31;;;14.48;55.68
69796;BME280;57073;45.650;9.612;2023-05-16T00:50:06;98284.38;;;14.54;55.10
69796;BME280;57073;45.650;9.612;2023-05-16T00:55:07;98277.97;;;14.45;55.30
69796;BME280;57073;45.650;9.612;2023-05-16T01:00:09;98281.47;;;14.46;55.64
69796;BME280;57073;45.650;9.612;2023-05-16T01:05:10;98273.28;;;14.51;55.76
69796;BME280;57073;45.650;9.612;2023-05-16T01:10:10;98267.41;;;14.43;54.82
69796;BME280;57073;45.650;9.612;2023-05-16T01:15:21;98251.25;;;14.33;55.93
69796;BME280;57073;45.650;9.612;2023-05-16T01:25:41;98233.44;;;14.22;54.94
69796;BME280;57073;45.650;9.612;2023-05-16T01:30:44;98236.38;;;14.01;54.78
69796;BME280;57073;45.650;9.612;2023-05-16T01:35:55;98231.09;;;13.86;54.55
69796;BME280;57073;45.650;9.612;2023-05-16T01:41:20;98229.72;;;13.89;55.00
69796;BME280;57073;45.650;9.612;2023-05-16T01:46:26;98237.59;;;13.80;54.83
69796;BME280;57073;45.650;9.612;2023-05-16T01:51:31;98224.69;;;13.72;55.55
69796;BME280;57073;45.650;9.612;2023-05-16T01:56:33;98211.84;;;13.82;54.87
69796;BME280;57073;45.650;9.612;2023-05-16T02:01:34;98213.28;;;13.70;55.06
69796;BME280;57073;45.650;9.612;2023-05-16T02:06:35;98204.31;;;13.74;55.46
69796;BME280;57073;45.650;9.612;2023-05-16T02:11:35;98204.47;;;13.59;55.43
69796;BME280;57073;45.650;9.612;2023-05-16T02:16:36;98199.81;;;13.64;55.18
69796;BME280;57073;45.650;9.612;2023-05-16T02:21:36;98190.75;;;13.45;55.36
69796;BME280;57073;45.650;9.612;2023-05-16T02:26:36;98192.78;;;13.24;56.02
69796;BME280;57073;45.650;9.612;2023-05-16T02:31:37;98178.66;;;13.32;55.69
69796;BME280;57073;45.650;9.612;2023-05-16T02:36:37;98176.63;;;13.14;56.14
69796;BME280;57073;45.650;9.612;2023-05-16T02:41:38;98172.81;;;13.15;55.54
69796;BME280;57073;45.650;9.612;2023-05-16T02:46:38;98163.91;;;13.14;56.18
69796;BME280;57073;45.650;9.612;2023-05-16T02:51:38;98163.28;;;13.22;55.86
69796;BME280;57073;45.650;9.612;2023-05-16T02:56:39;98163.84;;;13.24;56.02
69796;BME280;57073;45.650;9.612;2023-05-16T03:01:39;98146.28;;;13.17;55.07
69796;BME280;57073;45.650;9.612;2023-05-16T03:06:39;98137.00;;;12.88;55.00
69796;BME280;57073;45.650;9.612;2023-05-16T03:11:40;98128.66;;;12.85;55.37
69796;BME280;57073;45.650;9.612;2023-05-16T03:16:41;98127.75;;;12.95;54.48
69796;BME280;57073;45.650;9.612;2023-05-16T03:21:42;98132.72;;;12.82;54.76
69796;BME280;57073;45.650;9.612;2023-05-16T03:26:43;98124.34;;;12.79;55.08
69796;BME280;57073;45.650;9.612;2023-05-16T03:31:43;98118.41;;;12.71;54.92
69796;BME280;57073;45.650;9.612;2023-05-16T03:36:43;98126.19;;;12.88;54.37
69796;BME280;57073;45.650;9.612;2023-05-16T03:41:44;98111.66;;;12.79;54.46
69796;BME280;57073;45.650;9.612;2023-05-16T03:46:44;98125.84;;;12.95;53.88
69796;BME280;57073;45.650;9.612;2023-05-16T03:51:45;98114.91;;;12.71;54.25
69796;BME280;57073;45.650;9.612;2023-05-16T03:56:45;98116.97;;;12.89;53.88
69796;BME280;57073;45.650;9.612;2023-05-16T04:01:46;98121.09;;;12.82;53.36
69796;BME280;57073;45.650;9.612;2023-05-16T04:06:46;98106.47;;;12.83;53.82
69796;BME280;57073;45.650;9.612;2023-05-16T04:11:47;98112.69;;;12.83;53.42
69796;BME280;57073;45.650;9.612;2023-05-16T04:16:47;98109.69;;;12.90;53.58
69796;BME280;57073;45.650;9.612;2023-05-16T04:21:48;98118.03;;;12.94;53.64
69796;BME280;57073;45.650;9.612;2023-05-16T04:26:48;98105.53;;;13.03;52.66
69796;BME280;57073;45.650;9.612;2023-05-16T04:31:50;98103.06;;;13.06;52.92
69796;BME280;57073;45.650;9.612;2023-05-16T04:36:50;98109.25;;;13.12;52.84
69796;BME280;57073;45.650;9.612;2023-05-16T04:41:51;98107.88;;;13.15;52.38
69796;BME280;57073;45.650;9.612;2023-05-16T04:46:51;98108.56;;;13.31;52.30
69796;BME280;57073;45.650;9.612;2023-05-16T04:51:52;98109.25;;;13.46;51.94
69796;BME280;57073;45.650;9.612;2023-05-16T04:56:52;98110.28;;;13.51;51.51
69796;BME280;57073;45.650;9.612;2023-05-16T05:01:53;98103.94;;;13.60;51.35
69796;BME280;57073;45.650;9.612;2023-05-16T05:06:53;98097.22;;;13.58;51.36
69796;BME280;57073;45.650;9.612;2023-05-16T05:11:54;98098.63;;;13.79;51.54
69796;BME280;57073;45.650;9.612;2023-05-16T05:16:54;98088.22;;;13.92;51.51
69796;BME280;57073;45.650;9.612;2023-05-16T05:21:54;98092.16;;;14.04;51.46
69796;BME280;57073;45.650;9.612;2023-05-16T05:26:55;98097.38;;;14.20;52.08
69796;BME280;57073;45.650;9.612;2023-05-16T05:31:56;98091.50;;;14.13;52.00
69796;BME280;57073;45.650;9.612;2023-05-16T05:36:56;98092.34;;;14.32;51.86
69796;BME280;57073;45.650;9.612;2023-05-16T05:41:56;98095.22;;;14.41;51.86
69796;BME280;57073;45.650;9.612;2023-05-16T05:46:57;98100.94;;;14.39;52.04
69796;BME280;57073;45.650;9.612;2023-05-16T05:51:58;98091.50;;;14.56;51.62
69796;BME280;57073;45.650;9.612;2023-05-16T05:56:58;98090.69;;;14.74;52.09
69796;BME280;57073;45.650;9.612;2023-05-16T06:01:59;98095.31;;;14.93;51.70
69796;BME280;57073;45.650;9.612;2023-05-16T06:06:59;98103.03;;;15.05;51.05
69796;BME280;57073;45.650;9.612;2023-05-16T06:11:59;98092.22;;;15.18;50.42
69796;BME280;57073;45.650;9.612;2023-05-16T06:17:00;98091.66;;;15.35;49.88
69796;BME280;57073;45.650;9.612;2023-05-16T06:22:00;98097.06;;;15.68;49.36
69796;BME280;57073;45.650;9.612;2023-05-16T06:27:01;98103.19;;;15.93;50.33
69796;BME280;57073;45.650;9.612;2023-05-16T06:32:01;98101.88;;;16.18;48.67
69796;BME280;57073;45.650;9.612;2023-05-16T06:37:01;98100.66;;;16.24;48.41
69796;BME280;57073;45.650;9.612;2023-05-16T06:42:03;98114.94;;;16.30;47.17
69796;BME280;57073;45.650;9.612;2023-05-16T06:47:03;98124.91;;;16.62;48.14
69796;BME280;57073;45.650;9.612;2023-05-16T06:52:04;98134.69;;;16.35;49.58
69796;BME280;57073;45.650;9.612;2023-05-16T06:57:04;98158.47;;;16.30;49.35
69796;BME280;57073;45.650;9.612;2023-05-16T07:02:06;98158.06;;;16.09;50.51
69796;BME280;57073;45.650;9.612;2023-05-16T07:07:06;98163.47;;;15.81;51.71
69796;BME280;57073;45.650;9.612;2023-05-16T07:12:08;98177.88;;;15.63;51.89
69796;BME280;57073;45.650;9.612;2023-05-16T07:17:09;98179.66;;;15.53;51.72
69796;BME280;57073;45.650;9.612;2023-05-16T07:22:10;98178.88;;;15.67;51.93
69796;BME280;57073;45.650;9.612;2023-05-16T07:27:11;98187.13;;;15.62;51.37
69796;BME280;57073;45.650;9.612;2023-05-16T07:32:11;98193.09;;;15.45;52.15
69796;BME280;57073;45.650;9.612;2023-05-16T07:37:12;98201.25;;;15.45;51.64
69796;BME280;57073;45.650;9.612;2023-05-16T07:42:14;98202.00;;;15.12;53.01
69796;BME280;57073;45.650;9.612;2023-05-16T07:47:14;98215.06;;;15.10;53.83
69796;BME280;57073;45.650;9.612;2023-05-16T07:52:14;98199.44;;;15.21;53.67
69796;BME280;57073;45.650;9.612;2023-05-16T07:57:15;98209.34;;;15.31;53.33
69796;BME280;57073;45.650;9.612;2023-05-16T08:02:15;98221.25;;;15.35;53.90
69796;BME280;57073;45.650;9.612;2023-05-16T08:07:16;98210.22;;;15.26;55.31
69796;BME280;57073;45.650;9.612;2023-05-16T08:12:16;98211.47;;;15.53;54.45
69796;BME280;57073;45.650;9.612;2023-05-16T08:17:17;98211.94;;;15.74;54.35
69796;BME280;57073;45.650;9.612;2023-05-16T08:22:17;98216.84;;;15.72;54.28
69796;BME280;57073;45.650;9.612;2023-05-16T08:27:17;98215.63;;;15.45;55.05
69796;BME280;57073;45.650;9.612;2023-05-16T08:32:18;98220.50;;;15.48;54.96
69796;BME280;57073;45.650;9.612;2023-05-16T08:37:18;98208.34;;;15.59;55.08
69796;BME280;57073;45.650;9.612;2023-05-16T08:42:18;98202.91;;;15.59;55.27
69796;BME280;57073;45.650;9.612;2023-05-16T08:47:20;98204.47;;;15.66;54.79
69796;BME280;57073;45.650;9.612;2023-05-16T08:52:26;98193.41;;;15.76;54.55
69796;BME280;57073;45.650;9.612;2023-05-16T08:57:31;98199.28;;;15.83;54.95
69796;BME280;57073;45.650;9.612;2023-05-16T09:02:32;98195.47;;;15.84;54.86
69796;BME280;57073;45.650;9.612;2023-05-16T09:07:34;98196.63;;;15.78;56.40
69796;BME280;57073;45.650;9.612;2023-05-16T09:12:35;98179.00;;;15.94;55.73
69796;BME280;57073;45.650;9.612;2023-05-16T09:17:44;98185.97;;;16.14;55.49
69796;BME280;57073;45.650;9.612;2023-05-16T09:22:53;98199.97;;;16.08;54.37
69796;BME280;57073;45.650;9.612;2023-05-16T09:27:55;98180.69;;;15.90;55.28
69796;BME280;57073;45.650;9.612;2023-05-16T09:32:56;98180.00;;;15.99;54.06
69796;BME280;57073;45.650;9.612;2023-05-16T09:37:58;98174.03;;;15.83;53.79
69796;BME280;57073;45.650;9.612;2023-05-16T09:43:03;98176.97;;;15.86;54.85
69796;BME280;57073;45.650;9.612;2023-05-16T09:48:05;98213.06;;;16.06;55.08
69796;BME280;57073;45.650;9.612;2023-05-16T09:53:05;98225.94;;;16.00;53.62
69796;BME280;57073;45.650;9.612;2023-05-16T09:58:06;98224.41;;;15.94;54.50
69796;BME280;57073;45.650;9.612;2023-05-16T10:03:06;98235.59;;;16.06;55.32
69796;BME280;57073;45.650;9.612;2023-05-16T10:08:08;98246.75;;;15.72;55.97
69796;BME280;57073;45.650;9.612;2023-05-16T10:13:10;98257.84;;;15.75;55.55
69796;BME280;57073;45.650;9.612;2023-05-16T10:18:12;98251.47;;;15.66;56.17
69796;BME280;57073;45.650;9.612;2023-05-16T10:23:17;98257.63;;;15.72;55.71
69796;BME280;57073;45.650;9.612;2023-05-16T10:28:18;98259.38;;;15.82;56.39
69796;BME280;57073;45.650;9.612;2023-05-16T10:33:19;98263.56;;;15.74;55.98
69796;BME280;57073;45.650;9.612;2023-05-16T10:38:19;98256.09;;;15.66;56.04
69796;BME280;57073;45.650;9.612;2023-05-16T10:43:25;98265.66;;;15.82;56.19
69796;BME280;57073;45.650;9.612;2023-05-16T10:48:31;98260.13;;;15.87;57.10
69796;BME280;57073;45.650;9.612;2023-05-16T10:53:34;98267.53;;;15.82;57.55
69796;BME280;57073;45.650;9.612;2023-05-16T11:03:35;98250.66;;;15.85;58.09
69796;BME280;57073;45.650;9.612;2023-05-16T11:08:35;98241.75;;;15.98;58.87
69796;BME280;57073;45.650;9.612;2023-05-16T11:13:53;98252.72;;;16.07;59.52
69796;BME280;57073;45.650;9.612;2023-05-16T11:18:53;98254.56;;;16.11;59.39
69796;BME280;57073;45.650;9.612;2023-05-16T11:24:30;98232.19;;;16.01;60.13
69796;BME280;57073;45.650;9.612;2023-05-16T11:29:33;98208.03;;;16.27;60.41
69796;BME280;57073;45.650;9.612;2023-05-16T11:34:35;98220.94;;;16.35;61.66
69796;BME280;57073;45.650;9.612;2023-05-16T11:39:36;98241.91;;;16.34;60.40
69796;BME280;57073;45.650;9.612;2023-05-16T11:44:37;98224.88;;;16.43;59.87
69796;BME280;57073;45.650;9.612;2023-05-16T11:49:37;98238.00;;;16.54;60.88
69796;BME280;57073;45.650;9.612;2023-05-16T11:54:39;98210.47;;;16.56;60.21
69796;BME280;57073;45.650;9.612;2023-05-16T11:59:41;98223.78;;;16.71;59.85
69796;BME280;57073;45.650;9.612;2023-05-16T12:04:45;98219.16;;;16.58;59.08
69796;BME280;57073;45.650;9.612;2023-05-16T12:09:52;98199.19;;;16.77;59.84
69796;BME280;57073;45.650;9.612;2023-05-16T12:14:52;98197.03;;;17.01;60.47
69796;BME280;57073;45.650;9.612;2023-05-16T12:19:53;98198.44;;;17.13;58.75
69796;BME280;57073;45.650;9.612;2023-05-16T12:24:53;98183.97;;;17.12;59.05
69796;BME280;57073;45.650;9.612;2023-05-16T12:29:57;98173.72;;;17.09;59.39
69796;BME280;57073;45.650;9.612;2023-05-16T12:35:00;98173.72;;;17.09;58.92
69796;BME280;57073;45.650;9.612;2023-05-16T12:40:01;98178.53;;;17.12;58.58
69796;BME280;57073;45.650;9.612;2023-05-16T12:45:03;98161.63;;;17.01;58.74
69796;BME280;57073;45.650;9.612;2023-05-16T12:50:15;98158.66;;;16.89;59.45
69796;BME280;57073;45.650;9.612;2023-05-16T12:55:17;98149.53;;;16.94;58.80
69796;BME280;57073;45.650;9.612;2023-05-16T13:00:19;98138.53;;;16.99;58.30
69796;BME280;57073;45.650;9.612;2023-05-16T13:05:19;98133.97;;;17.08;58.96
69796;BME280;57073;45.650;9.612;2023-05-16T13:10:22;98138.00;;;17.10;58.24
69796;BME280;57073;45.650;9.612;2023-05-16T13:15:22;98147.44;;;17.27;58.43
69796;BME280;57073;45.650;9.612;2023-05-16T13:20:23;98152.56;;;17.51;58.40
69796;BME280;57073;45.650;9.612;2023-05-16T13:25:23;98155.56;;;17.63;57.42
69796;BME280;57073;45.650;9.612;2023-05-16T13:30:24;98140.47;;;17.89;56.92
69796;BME280;57073;45.650;9.612;2023-05-16T13:35:24;98136.88;;;18.11;56.88
69796;BME280;57073;45.650;9.612;2023-05-16T13:40:25;98137.53;;;18.16;55.42
69796;BME280;57073;45.650;9.612;2023-05-16T13:45:27;98140.78;;;18.27;55.61
69796;BME280;57073;45.650;9.612;2023-05-16T13:50:28;98139.13;;;18.17;54.41
69796;BME280;57073;45.650;9.612;2023-05-16T13:55:28;98142.38;;;18.19;54.08
69796;BME280;57073;45.650;9.612;2023-05-16T14:00:28;98142.72;;;18.27;54.20
69796;BME280;57073;45.650;9.612;2023-05-16T14:05:29;98138.22;;;18.31;53.62
69796;BME280;57073;45.650;9.612;2023-05-16T14:10:29;98138.09;;;18.36;52.95
69796;BME280;57073;45.650;9.612;2023-05-16T14:15:31;98135.56;;;18.48;53.27
69796;BME280;57073;45.650;9.612;2023-05-16T14:20:31;98134.31;;;18.54;52.97
69796;BME280;57073;45.650;9.612;2023-05-16T14:25:31;98132.63;;;18.44;52.45
69796;BME280;57073;45.650;9.612;2023-05-16T14:30:32;98115.78;;;18.42;51.47
69796;BME280;57073;45.650;9.612;2023-05-16T14:35:32;98132.78;;;18.31;50.77
69796;BME280;57073;45.650;9.612;2023-05-16T14:40:33;98136.31;;;18.31;51.33
69796;BME280;57073;45.650;9.612;2023-05-16T14:45:33;98133.25;;;18.33;51.03
69796;BME280;57073;45.650;9.612;2023-05-16T14:50:34;98136.44;;;18.26;51.79
69796;BME280;57073;45.650;9.612;2023-05-16T14:55:34;98127.16;;;18.27;51.67
69796;BME280;57073;45.650;9.612;2023-05-16T15:00:35;98127.47;;;18.25;52.00
69796;BME280;57073;45.650;9.612;2023-05-16T15:05:36;98133.41;;;18.28;51.21
69796;BME280;57073;45.650;9.612;2023-05-16T15:10:36;98127.91;;;18.19;49.30
69796;BME280;57073;45.650;9.612;2023-05-16T15:15:36;98129.22;;;18.21;50.73
69796;BME280;57073;45.650;9.612;2023-05-16T15:20:38;98120.09;;;18.35;49.99
69796;BME280;57073;45.650;9.612;2023-05-16T15:25:38;98128.91;;;18.23;48.34
69796;BME280;57073;45.650;9.612;2023-05-16T15:30:39;98137.88;;;18.23;49.49
69796;BME280;57073;45.650;9.612;2023-05-16T15:35:39;98139.06;;;18.40;49.77
69796;BME280;57073;45.650;9.612;2023-05-16T15:40:39;98146.59;;;18.34;49.37
69796;BME280;57073;45.650;9.612;2023-05-16T15:45:42;98152.22;;;18.38;48.53
69796;BME280;57073;45.650;9.612;2023-05-16T15:50:43;98155.44;;;18.40;48.99
69796;BME280;57073;45.650;9.612;2023-05-16T15:55:43;98152.63;;;17.82;51.42
69796;BME280;57073;45.650;9.612;2023-05-16T16:00:44;98154.44;;;17.64;51.61
69796;BME280;57073;45.650;9.612;2023-05-16T16:05:44;98158.44;;;17.44;51.23
69796;BME280;57073;45.650;9.612;2023-05-16T16:10:45;98160.38;;;17.66;51.72
69796;BME280;57073;45.650;9.612;2023-05-16T16:15:45;98156.97;;;17.61;53.44
69796;BME280;57073;45.650;9.612;2023-05-16T16:20:46;98155.34;;;17.15;55.73
69796;BME280;57073;45.650;9.612;2023-05-16T16:25:46;98150.53;;;17.34;55.99
69796;BME280;57073;45.650;9.612;2023-05-16T16:30:46;98152.44;;;17.56;54.42
69796;BME280;57073;45.650;9.612;2023-05-16T16:35:50;98150.31;;;17.76;54.47
69796;BME280;57073;45.650;9.612;2023-05-16T16:40:51;98146.53;;;17.85;53.61
69796;BME280;57073;45.650;9.612;2023-05-16T16:45:51;98151.47;;;17.75;52.13
69796;BME280;57073;45.650;9.612;2023-05-16T16:50:51;98160.81;;;17.60;50.87
69796;BME280;57073;45.650;9.612;2023-05-16T16:55:52;98162.31;;;17.66;51.12
69796;BME280;57073;45.650;9.612;2023-05-16T17:00:52;98163.75;;;17.63;50.73
69796;BME280;57073;45.650;9.612;2023-05-16T17:05:53;98163.78;;;17.49;50.82
69796;BME280;57073;45.650;9.612;2023-05-16T17:10:53;98171.84;;;17.55;51.90
69796;BME280;57073;45.650;9.612;2023-05-16T17:15:54;98177.69;;;17.62;52.13
69796;BME280;57073;45.650;9.612;2023-05-16T17:20:55;98170.69;;;17.56;51.99
69796;BME280;57073;45.650;9.612;2023-05-16T17:25:56;98177.16;;;17.60;52.96
69796;BME280;57073;45.650;9.612;2023-05-16T17:30:56;98182.44;;;17.56;53.44
69796;BME280;57073;45.650;9.612;2023-05-16T17:35:56;98179.41;;;17.58;53.81
69796;BME280;57073;45.650;9.612;2023-05-16T17:40:57;98172.94;;;17.54;53.90
69796;BME280;57073;45.650;9.612;2023-05-16T17:45:57;98181.03;;;17.45;54.38
69796;BME280;57073;45.650;9.612;2023-05-16T17:50:58;98176.72;;;17.44;54.57
69796;BME280;57073;45.650;9.612;2023-05-16T17:56:00;98172.53;;;17.38;54.86
69796;BME280;57073;45.650;9.612;2023-05-16T18:01:01;98171.31;;;17.30;55.09
69796;BME280;57073;45.650;9.612;2023-05-16T18:06:04;98181.72;;;17.28;54.02
69796;BME280;57073;45.650;9.612;2023-05-16T18:11:05;98179.22;;;17.18;54.36
69796;BME280;57073;45.650;9.612;2023-05-16T18:16:06;98178.25;;;17.14;55.21
69796;BME280;57073;45.650;9.612;2023-05-16T18:21:07;98178.34;;;17.08;55.09
69796;BME280;57073;45.650;9.612;2023-05-16T18:26:08;98185.34;;;17.01;55.11
69796;BME280;57073;45.650;9.612;2023-05-16T18:31:08;98187.88;;;16.97;55.02
69796;BME280;57073;45.650;9.612;2023-05-16T18:36:09;98187.88;;;16.97;54.70
69796;BME280;57073;45.650;9.612;2023-05-16T18:41:09;98181.63;;;16.97;55.17
69796;BME280;57073;45.650;9.612;2023-05-16T18:46:09;98184.53;;;17.00;56.07
69796;BME280;57073;45.650;9.612;2023-05-16T18:51:10;98195.72;;;16.99;56.55
69796;BME280;57073;45.650;9.612;2023-05-16T18:56:11;98199.44;;;17.03;55.94
69796;BME280;57073;45.650;9.612;2023-05-16T19:01:11;98205.13;;;16.92;56.51
69796;BME280;57073;45.650;9.612;2023-05-16T19:06:11;98209.25;;;16.90;56.76
69796;BME280;57073;45.650;9.612;2023-05-16T19:11:12;98209.28;;;16.76;57.25
69796;BME280;57073;45.650;9.612;2023-05-16T19:16:12;98218.31;;;16.71;56.94
69796;BME280;57073;45.650;9.612;2023-05-16T19:21:13;98217.81;;;16.69;57.64
69796;BME280;57073;45.650;9.612;2023-05-16T19:26:14;98218.31;;;16.58;58.10
69796;BME280;57073;45.650;9.612;2023-05-16T19:31:15;98224.78;;;16.48;58.37
69796;BME280;57073;45.650;9.612;2023-05-16T19:36:15;98230.31;;;16.43;57.17
69796;BME280;57073;45.650;9.612;2023-05-16T19:41:16;98234.25;;;16.37;58.05
69796;BME280;57073;45.650;9.612;2023-05-16T19:46:17;98248.84;;;16.41;58.39
69796;BME280;57073;45.650;9.612;2023-05-16T19:51:17;98257.19;;;16.30;58.67
69796;BME280;57073;45.650;9.612;2023-05-16T19:56:17;98255.09;;;16.27;58.86
69796;BME280;57073;45.650;9.612;2023-05-16T20:01:18;98262.75;;;16.25;57.82
69796;BME280;57073;45.650;9.612;2023-05-16T20:06:18;98261.72;;;16.21;58.38
69796;BME280;57073;45.650;9.612;2023-05-16T20:11:18;98262.22;;;16.23;58.49
69796;BME280;57073;45.650;9.612;2023-05-16T20:16:20;98275.31;;;16.07;58.64
69796;BME280;57073;45.650;9.612;2023-05-16T20:21:20;98274.56;;;16.02;58.05
69796;BME280;57073;45.650;9.612;2023-05-16T20:26:21;98277.88;;;15.99;58.15
69796;BME280;57073;45.650;9.612;2023-05-16T20:31:21;98281.72;;;15.78;58.42
69796;BME280;57073;45.650;9.612;2023-05-16T20:36:22;98304.66;;;15.91;57.93
69796;BME280;57073;45.650;9.612;2023-05-16T20:41:22;98306.13;;;15.84;58.54
69796;BME280;57073;45.650;9.612;2023-05-16T20:46:22;98304.13;;;15.89;57.47
69796;BME280;57073;45.650;9.612;2023-05-16T20:51:23;98313.88;;;15.90;57.26
69796;BME280;57073;45.650;9.612;2023-05-16T20:56:23;98312.81;;;15.91;56.27
69796;BME280;57073;45.650;9.612;2023-05-16T21:01:23;98316.00;;;15.74;56.72
69796;BME280;57073;45.650;9.612;2023-05-16T21:06:24;98311.69;;;15.73;58.16
69796;BME280;57073;45.650;9.612;2023-05-16T21:11:25;98307.13;;;15.69;59.08
69796;BME280;57073;45.650;9.612;2023-05-16T21:16:26;98310.16;;;15.67;59.36
69796;BME280;57073;45.650;9.612;2023-05-16T21:21:29;98294.78;;;15.57;59.92
69796;BME280;57073;45.650;9.612;2023-05-16T21:26:30;98308.38;;;15.57;60.41
69796;BME280;57073;45.650;9.612;2023-05-16T21:31:30;98322.03;;;15.52;60.78
69796;BME280;57073;45.650;9.612;2023-05-16T21:36:30;98324.97;;;15.56;59.84
69796;BME280;57073;45.650;9.612;2023-05-16T21:41:31;98328.59;;;15.51;60.26
69796;BME280;57073;45.650;9.612;2023-05-16T21:46:31;98333.13;;;15.56;60.63
69796;BME280;57073;45.650;9.612;2023-05-16T21:51:32;98332.22;;;15.42;61.48
69796;BME280;57073;45.650;9.612;2023-05-16T21:56:32;98327.84;;;15.46;61.12
69796;BME280;57073;45.650;9.612;2023-05-16T22:01:32;98326.06;;;15.36;62.09
69796;BME280;57073;45.650;9.612;2023-05-16T22:06:33;98333.53;;;15.25;62.93
69796;BME280;57073;45.650;9.612;2023-05-16T22:11:33;98340.75;;;15.35;63.17
69796;BME280;57073;45.650;9.612;2023-05-16T22:16:33;98330.47;;;15.32;62.91
69796;BME280;57073;45.650;9.612;2023-05-16T22:21:34;98338.84;;;15.35;62.55
69796;BME280;57073;45.650;9.612;2023-05-16T22:26:35;98348.50;;;15.23;64.31
69796;BME280;57073;45.650;9.612;2023-05-16T22:31:35;98353.06;;;15.27;63.60
69796;BME280;57073;45.650;9.612;2023-05-16T22:36:35;98363.16;;;15.22;63.98
69796;BME280;57073;45.650;9.612;2023-05-16T22:41:36;98352.91;;;15.18;63.92
69796;BME280;57073;45.650;9.612;2023-05-16T22:46:36;98353.13;;;15.22;63.59
69796;BME280;57073;45.650;9.612;2023-05-16T22:51:36;98350.25;;;15.13;64.14
69796;BME280;57073;45.650;9.612;2023-05-16T22:56:37;98357.16;;;15.25;63.59
69796;BME280;57073;45.650;9.612;2023-05-16T23:01:37;98368.28;;;15.04;64.89
69796;BME280;57073;45.650;9.612;2023-05-16T23:06:37;98367.13;;;15.10;64.06
69796;BME280;57073;45.650;9.612;2023-05-16T23:11:38;98366.38;;;15.05;64.74
69796;BME280;57073;45.650;9.612;2023-05-16T23:16:38;98378.44;;;15.17;64.27
69796;BME280;57073;45.650;9.612;2023-05-16T23:21:48;98380.06;;;15.18;64.28
69796;BME280;57073;45.650;9.612;2023-05-16T23:26:48;98384.72;;;15.13;63.78
69796;BME280;57073;45.650;9.612;2023-05-16T23:31:48;98396.13;;;15.15;64.01
69796;BME280;57073;45.650;9.612;2023-05-16T23:36:49;98393.63;;;14.94;65.21
69796;BME280;57073;45.650;9.612;2023-05-16T23:41:50;98386.06;;;14.91;66.12
69796;BME280;57073;45.650;9.612;2023-05-16T23:46:50;98393.22;;;15.06;65.49
69796;BME280;57073;45.650;9.612;2023-05-16T23:51:50;98403.91;;;14.97;66.20
69796;BME280;57073;45.650;9.612;2023-05-16T23:56:51;98405.81;;;14.97;65.93
